Time;durP1;ratioP1;P1;durP2;ratioP2;P2;SDS_P1;SDS_P2;PMS_P1;PMS_P2;Temp;Humidity;BMP_temperature;BMP_pressure;BME280_temperature;BME280_humidity;BME280_pressure;Samples;Min_cycle;Max_cycle;Signal;HPM_P1;HPM_P2
2022/04/07 00:01:57;;;;;;;2.23;1.60;;;6.20;1.00;6.70;92620.00;;;;7394665;19;20125;-76
2022/04/07 00:04:24;;;;;;;2.17;1.60;;;6.20;1.00;6.70;92640.00;;;;7394086;19;20133;-74
2022/04/07 00:06:58;;;;;;;1.87;1.67;;;6.30;1.00;6.60;92603.00;;;;7393947;19;20504;-77
2022/04/07 00:09:25;;;;;;;2.87;2.00;;;6.30;1.00;6.60;92619.00;;;;7393590;19;20180;-75
2022/04/07 00:11:52;;;;;;;2.00;1.70;;;6.30;1.00;6.60;92626.00;;;;7394129;19;20612;-74
2022/04/07 00:14:26;;;;;;;3.63;1.90;;;6.20;1.00;6.50;92621.00;;;;7391947;19;20158;-75
2022/04/07 00:16:54;;;;;;;2.07;1.87;;;6.20;1.00;6.50;92616.00;;;;7394322;19;20144;-76
2022/04/07 00:19:22;;;;;;;4.30;2.17;;;6.10;1.00;6.40;92605.00;;;;7393362;19;20125;-76
2022/04/07 00:21:57;;;;;;;3.93;1.90;;;6.10;1.00;6.30;92613.00;;;;7393157;19;20124;-76
2022/04/07 00:24:24;;;;;;;2.20;1.90;;;6.00;1.00;6.40;92602.00;;;;7394034;19;20141;-76
2022/04/07 00:26:51;;;;;;;2.57;1.70;;;6.00;1.00;6.40;92610.00;;;;7393510;19;20519;-74
2022/04/07 00:29:25;;;;;;;2.10;1.70;;;5.90;1.00;6.30;92628.00;;;;7393163;19;20467;-75
2022/04/07 00:31:57;;;;;;;1.70;1.60;;;5.90;1.00;6.10;92597.00;;;;7393555;19;20128;-76
2022/04/07 00:34:24;;;;;;;1.60;1.50;;;5.80;1.00;6.20;92615.00;;;;7392511;19;20600;-74
2022/04/07 00:36:58;;;;;;;2.80;1.90;;;5.80;10.70;6.00;92620.00;;;;7392562;19;20138;-76
2022/04/07 00:39:25;;;;;;;2.53;1.23;;;5.70;82.60;6.00;92588.00;;;;7394628;19;20125;-74
2022/04/07 00:41:52;;;;;;;1.40;1.30;;;5.70;99.90;6.00;92579.00;;;;7393261;19;20132;-74
2022/04/07 00:44:27;;;;;;;1.03;1.00;;;5.70;99.90;6.10;92586.00;;;;7393957;19;20596;-75
2022/04/07 00:46:55;;;;;;;2.20;1.50;;;5.70;99.90;6.00;92546.00;;;;7393708;19;20603;-76
2022/04/07 00:49:22;;;;;;;2.90;1.17;;;5.70;99.90;6.00;92569.00;;;;7396822;19;20162;-78
2022/04/07 00:51:55;;;;;;;1.63;1.40;;;5.70;99.90;6.00;92579.00;;;;7396741;19;20596;-77
2022/04/07 00:54:22;;;;;;;1.30;1.20;;;5.70;99.90;6.10;92591.00;;;;7394918;19;20180;-75
2022/04/07 00:56:49;;;;;;;1.93;1.43;;;5.70;99.90;6.10;92574.00;;;;7392522;19;20175;-76
2022/04/07 00:59:30;;;;;;;2.33;1.40;;;5.70;99.90;6.20;92585.00;;;;7392871;19;20129;-77
2022/04/07 01:01:58;;;;;;;3.00;1.27;;;5.70;99.90;6.00;92570.00;;;;7391632;19;20164;-74
2022/04/07 01:04:33;;;;;;;1.50;1.20;;;5.70;99.90;6.00;92578.00;;;;7392385;19;20129;-75
2022/04/07 01:07:00;;;;;;;1.20;1.10;;;5.70;99.90;5.90;92560.00;;;;7395262;19;20152;-77
2022/04/07 01:09:30;;;;;;;1.30;1.20;;;5.70;99.90;6.00;92561.00;;;;7392896;19;20160;-78
2022/04/07 01:12:05;;;;;;;1.47;1.30;;;5.70;99.90;6.00;92597.00;;;;7395101;19;20162;-78
2022/04/07 01:14:32;;;;;;;1.30;1.13;;;5.60;99.90;6.00;92583.00;;;;7393907;19;20133;-79
2022/04/07 01:16:59;;;;;;;1.33;1.20;;;5.60;99.90;6.00;92525.00;;;;7392788;19;20156;-76
2022/04/07 01:19:33;;;;;;;1.50;1.40;;;5.60;99.90;6.00;92551.00;;;;7393369;19;20606;-76
2022/04/07 01:22:00;;;;;;;1.97;1.30;;;5.60;81.10;6.00;92540.00;;;;7394624;19;20145;-76
2022/04/07 01:24:33;;;;;;;1.57;1.47;;;5.60;1.00;5.90;92542.00;;;;7395345;19;20620;-77
2022/04/07 01:27:07;;;;;;;1.90;1.43;;;5.60;1.00;5.90;92527.00;;;;7392596;19;20129;-77
2022/04/07 01:29:35;;;;;;;1.27;1.17;;;5.70;1.00;5.90;92490.00;;;;7392836;19;20157;-79
2022/04/07 01:32:12;;;;;;;1.50;1.30;;;5.70;1.00;5.80;92540.00;;;;7392799;19;20639;-77
2022/04/07 01:34:46;;;;;;;2.57;1.23;;;5.60;1.00;5.90;92536.00;;;;7390793;19;20169;-75
2022/04/07 01:37:15;;;;;;;1.47;1.30;;;5.70;1.00;5.90;92517.00;;;;7392028;19;20141;-76
2022/04/07 01:39:50;;;;;;;1.30;1.20;;;5.70;99.90;5.80;92530.00;;;;7392199;19;20141;-78
2022/04/07 01:42:24;;;;;;;1.50;1.40;;;5.70;1.40;5.80;92543.00;;;;7391236;19;20136;-76
2022/04/07 01:44:57;;;;;;;2.07;1.23;;;5.70;1.00;5.80;92509.00;;;;7391711;19;20137;-76
2022/04/07 01:47:36;;;;;;;2.40;1.20;;;5.70;1.00;5.80;92531.00;;;;7391154;19;20195;-76
2022/04/07 01:50:09;;;;;;;2.70;1.60;;;5.70;1.00;5.90;92536.00;;;;7392582;19;20200;-76
2022/04/07 01:52:44;;;;;;;1.93;1.30;;;5.70;99.90;5.90;92508.00;;;;7396595;19;20591;-75
2022/04/07 01:55:11;;;;;;;1.50;1.40;;;5.80;99.90;5.90;92512.00;;;;7388346;19;20178;-75
2022/04/07 01:57:39;;;;;;;4.30;1.40;;;5.80;99.90;5.90;92517.00;;;;7388956;19;20671;-76
2022/04/07 02:00:13;;;;;;;1.40;1.30;;;5.80;99.90;6.00;92518.00;;;;7391163;19;20156;-74
2022/04/07 02:02:40;;;;;;;2.40;1.50;;;5.80;99.90;6.00;92527.00;;;;7395364;19;20128;-75
2022/04/07 02:05:10;;;;;;;2.50;1.50;;;5.80;99.90;6.10;92506.00;;;;7398356;19;20141;-76
2022/04/07 02:07:47;;;;;;;1.93;1.40;;;5.80;99.90;6.10;92491.00;;;;7398801;19;20129;-75
2022/04/07 02:10:15;;;;;;;1.53;1.20;;;5.80;99.90;6.10;92509.00;;;;7397190;19;20591;-77
2022/04/07 02:12:43;;;;;;;2.20;1.23;;;5.80;99.90;6.20;92501.00;;;;7397939;19;20651;-76
2022/04/07 02:15:17;;;;;;;1.40;1.20;;;5.80;99.90;6.00;92492.00;;;;7394891;19;20128;-76
2022/04/07 02:17:44;;;;;;;1.93;1.20;;;5.80;99.90;6.10;92512.00;;;;7399290;19;20155;-74
2022/04/07 02:20:12;;;;;;;1.50;1.40;;;5.80;99.90;6.10;92521.00;;;;7397418;19;20140;-74
2022/04/07 02:22:46;;;;;;;1.30;1.20;;;5.80;99.90;6.00;92504.00;;;;7397540;19;20144;-76
2022/04/07 02:25:13;;;;;;;1.73;1.23;;;5.70;99.90;6.10;92504.00;;;;7397483;19;20129;-74
2022/04/07 02:27:42;;;;;;;1.20;1.13;;;5.70;1.00;5.90;92498.00;;;;7397018;19;20216;-75
2022/04/07 02:30:16;;;;;;;1.73;1.33;;;5.60;1.00;5.80;92531.00;;;;7396693;19;20620;-74
2022/04/07 02:32:43;;;;;;;1.37;1.27;;;5.60;1.00;5.80;92515.00;;;;7397781;19;20144;-76
2022/04/07 02:35:12;;;;;;;1.40;1.30;;;5.50;1.00;5.90;92525.00;;;;7394009;19;20605;-76
2022/04/07 02:37:48;;;;;;;1.30;1.20;;;5.50;87.50;5.90;92512.00;;;;7396276;19;20151;-75
2022/04/07 02:40:15;;;;;;;1.53;1.20;;;5.50;99.90;5.80;92499.00;;;;7397598;19;20495;-77
2022/04/07 02:42:42;;;;;;;1.50;1.40;;;5.50;99.90;5.80;92512.00;;;;7396600;19;20162;-75
2022/04/07 02:45:16;;;;;;;1.50;1.37;;;5.40;99.90;5.80;92502.00;;;;7396778;19;20599;-75
2022/04/07 02:47:44;;;;;;;1.53;1.20;;;5.40;99.90;5.70;92508.00;;;;7398587;19;20121;-76
2022/04/07 02:50:11;;;;;;;1.50;1.40;;;5.30;99.90;5.60;92479.00;;;;7397097;19;20149;-77
2022/04/07 02:52:45;;;;;;;1.97;1.50;;;5.30;99.90;5.70;92495.00;;;;7400090;19;20698;-77
2022/04/07 02:55:13;;;;;;;1.13;1.03;;;5.30;99.90;5.70;92502.00;;;;7394900;19;20200;-75
2022/04/07 02:57:41;;;;;;;3.00;1.40;;;5.30;99.90;5.70;92480.00;;;;7395904;19;20185;-78
2022/04/07 03:00:15;;;;;;;2.63;1.40;;;5.30;99.90;5.70;92463.00;;;;7399219;19;20156;-76
2022/04/07 03:02:42;;;;;;;1.77;1.27;;;5.30;99.90;5.70;92485.00;;;;7397729;19;20472;-78
2022/04/07 03:05:11;;;;;;;1.40;1.30;;;5.30;99.90;5.70;92484.00;;;;7399173;19;20481;-77
2022/04/07 03:07:44;;;;;;;2.03;1.30;;;5.30;99.90;5.70;92471.00;;;;7402148;19;20485;-77
2022/04/07 03:10:11;;;;;;;2.13;1.50;;;5.30;99.90;5.70;92487.00;;;;7399145;19;20129;-77
2022/04/07 03:12:38;;;;;;;1.90;1.30;;;5.30;99.90;5.80;92478.00;;;;7397824;19;20144;-78
2022/04/07 03:15:12;;;;;;;1.10;1.00;;;5.30;99.90;5.70;92473.00;;;;7398172;19;20148;-79
2022/04/07 03:17:39;;;;;;;1.70;1.50;;;5.40;99.90;5.70;92493.00;;;;7397613;19;20137;-76
2022/04/07 03:20:07;;;;;;;1.50;1.27;;;5.40;99.90;5.70;92478.00;;;;7397791;19;20626;-77
2022/04/07 03:22:41;;;;;;;1.40;1.30;;;5.40;99.90;5.80;92442.00;;;;7397237;19;20591;-77
2022/04/07 03:25:08;;;;;;;2.37;1.43;;;5.40;99.90;5.80;92438.00;;;;7398229;19;20141;-77
2022/04/07 03:27:35;;;;;;;1.20;1.10;;;5.40;99.90;5.90;92462.00;;;;7398942;19;20157;-78
2022/04/07 03:30:10;;;;;;;0.93;0.93;;;5.40;34.10;5.90;92440.00;;;;7396915;19;20146;-77
2022/04/07 03:32:37;;;;;;;2.33;1.20;;;5.50;14.60;5.90;92438.00;;;;7396389;19;20600;-77
2022/04/07 03:35:05;;;;;;;1.47;1.10;;;5.50;41.50;5.80;92474.00;;;;7394364;19;20128;-77
2022/04/07 03:37:39;;;;;;;1.13;1.03;;;5.50;33.40;5.90;92457.00;;;;7396640;19;20154;-75
2022/04/07 03:40:08;;;;;;;1.83;0.90;;;5.50;40.40;5.90;92444.00;;;;7397425;19;20163;-76
2022/04/07 03:42:43;;;;;;;1.30;1.00;;;5.50;1.00;5.90;92454.00;;;;7406212;19;20136;-76
2022/04/07 03:45:18;;;;;;;2.23;0.97;;;5.60;1.00;5.90;92444.00;;;;7397401;19;20141;-77
2022/04/07 03:47:45;;;;;;;1.20;1.10;;;5.60;1.00;6.00;92440.00;;;;7394895;19;20141;-75
2022/04/07 03:50:12;;;;;;;1.80;1.10;;;5.60;1.00;6.00;92435.00;;;;7394030;19;20509;-76
2022/04/07 03:52:46;;;;;;;1.10;1.00;;;5.60;1.00;6.00;92461.00;;;;7397141;19;20105;-76
2022/04/07 03:55:13;;;;;;;1.10;1.00;;;5.60;1.00;5.90;92458.00;;;;7392893;19;20145;-75
2022/04/07 03:57:46;;;;;;;2.40;1.40;;;5.60;1.00;6.00;92427.00;;;;7392504;19;20188;-75
2022/04/07 04:00:26;;;;;;;2.27;1.30;;;5.50;1.00;6.00;92439.00;;;;7394089;19;20161;-74
2022/04/07 04:02:53;;;;;;;0.90;0.90;;;5.50;1.00;5.90;92435.00;;;;7396421;19;20149;-75
2022/04/07 04:05:27;;;;;;;1.70;1.27;;;5.50;1.00;5.90;92428.00;;;;7393936;19;20588;-75
2022/04/07 04:07:56;;;;;;;1.20;1.10;;;5.50;1.00;5.90;92432.00;;;;7395232;19;20128;-75
2022/04/07 04:10:23;;;;;;;2.83;1.10;;;5.50;1.00;6.00;92400.00;;;;7392715;19;20161;-76
2022/04/07 04:12:57;;;;;;;1.50;1.23;;;5.50;35.60;6.00;92419.00;;;;7395529;19;20125;-76
2022/04/07 04:15:24;;;;;;;1.13;1.10;;;5.50;12.80;5.90;92410.00;;;;7392526;19;20584;-76
2022/04/07 04:17:51;;;;;;;2.03;1.13;;;5.50;52.50;5.90;92404.00;;;;7394167;19;20118;-75
2022/04/07 04:20:25;;;;;;;1.37;1.17;;;5.50;49.90;5.80;92409.00;;;;7394179;19;20468;-75
2022/04/07 04:22:52;;;;;;;2.03;1.20;;;5.50;1.00;6.00;92397.00;;;;7393248;19;20153;-75
2022/04/07 04:25:19;;;;;;;1.60;1.27;;;5.50;1.00;6.00;92400.00;;;;7392815;19;20141;-76
2022/04/07 04:27:54;;;;;;;2.30;1.27;;;5.50;1.00;6.00;92421.00;;;;7394130;19;20145;-75
2022/04/07 04:30:22;;;;;;;1.73;1.30;;;5.60;1.00;6.00;92386.00;;;;7394480;19;20137;-74
2022/04/07 04:32:49;;;;;;;2.20;1.30;;;5.60;1.00;5.90;92409.00;;;;7393411;19;20132;-76
2022/04/07 04:35:23;;;;;;;1.77;1.20;;;5.50;1.00;6.00;92373.00;;;;7392050;19;20602;-76
2022/04/07 04:37:50;;;;;;;2.87;1.30;;;5.50;1.00;6.10;92391.00;;;;7392640;19;20583;-75
2022/04/07 04:40:18;;;;;;;1.37;1.27;;;5.50;1.00;6.10;92359.00;;;;7392552;19;20145;-76
2022/04/07 04:42:52;;;;;;;1.17;1.07;;;5.60;1.00;6.00;92387.00;;;;7395025;19;20123;-76
2022/04/07 04:45:19;;;;;;;1.73;1.17;;;5.60;1.00;6.00;92372.00;;;;7392554;19;20137;-74
2022/04/07 04:47:46;;;;;;;1.30;1.20;;;5.60;1.00;6.00;92370.00;;;;7392263;19;20168;-74
2022/04/07 04:50:20;;;;;;;2.00;1.20;;;5.60;1.00;6.00;92369.00;;;;7394230;19;20128;-76
2022/04/07 04:52:48;;;;;;;1.20;1.00;;;5.60;1.00;6.00;92382.00;;;;7392447;19;20137;-74
2022/04/07 04:55:15;;;;;;;2.40;1.10;;;5.60;1.00;6.00;92371.00;;;;7391028;19;20608;-75
2022/04/07 04:58:07;;;;;;;0.90;0.90;;;5.60;1.00;6.00;92366.00;;;;7391145;19;20170;-75
2022/04/07 05:00:42;;;;;;;0.70;0.70;;;5.60;1.00;6.00;92394.00;;;;7393729;19;20580;-75
2022/04/07 05:03:16;;;;;;;1.03;0.93;;;5.60;1.00;6.00;92360.00;;;;7393090;19;20165;-74
2022/04/07 05:05:43;;;;;;;1.10;0.90;;;5.60;1.00;6.10;92365.00;;;;7391315;19;20141;-75
2022/04/07 05:08:10;;;;;;;1.93;0.70;;;5.60;1.00;6.20;92370.00;;;;7392076;19;20587;-76
2022/04/07 05:10:44;;;;;;;2.00;0.90;;;5.60;1.00;6.10;92357.00;;;;7390871;19;20165;-74
2022/04/07 05:13:11;;;;;;;1.10;0.97;;;5.50;1.00;6.20;92343.00;;;;7391105;19;20148;-75
2022/04/07 05:15:39;;;;;;;1.93;0.87;;;5.50;1.00;6.20;92334.00;;;;7390169;19;20146;-76
2022/04/07 05:18:13;;;;;;;1.57;0.83;;;5.50;1.00;6.20;92342.00;;;;7392011;19;20139;-74
2022/04/07 05:20:40;;;;;;;0.80;0.70;;;5.50;1.00;6.20;92350.00;;;;7391157;19;20137;-74
2022/04/07 05:23:07;;;;;;;1.77;0.77;;;5.50;1.00;6.20;92339.00;;;;7391449;19;20141;-74
2022/04/07 05:25:41;;;;;;;1.30;0.90;;;5.50;1.00;6.20;92353.00;;;;7392401;19;20147;-76
2022/04/07 05:28:08;;;;;;;1.00;0.80;;;5.50;1.00;6.30;92327.00;;;;7391303;19;20137;-75
2022/04/07 05:30:35;;;;;;;0.70;0.70;;;5.50;11.80;6.20;92324.00;;;;7391260;19;20276;-75
2022/04/07 05:33:09;;;;;;;0.93;0.63;;;5.50;19.30;6.40;92330.00;;;;7391851;19;20140;-77
2022/04/07 05:35:36;;;;;;;1.20;1.10;;;5.60;1.00;6.40;92329.00;;;;7390810;19;20125;-75
2022/04/07 05:38:04;;;;;;;0.80;0.80;;;5.60;1.00;6.50;92317.00;;;;7389728;19;20149;-76
2022/04/07 05:40:37;;;;;;;1.27;0.70;;;5.70;1.00;6.60;92317.00;;;;7391382;19;20144;-75
2022/04/07 05:43:05;;;;;;;1.17;0.80;;;5.70;1.00;6.60;92308.00;;;;7390831;19;20121;-76
2022/04/07 05:45:34;;;;;;;1.00;0.87;;;5.80;1.00;6.70;92292.00;;;;7391602;19;20145;-75
2022/04/07 05:48:10;;;;;;;2.17;0.70;;;5.80;1.00;6.70;92307.00;;;;7391167;19;20599;-76
2022/04/07 05:50:37;;;;;;;2.17;0.90;;;5.80;1.00;6.90;92314.00;;;;7392183;19;20128;-76
2022/04/07 05:53:04;;;;;;;1.17;0.93;;;5.90;99.90;7.10;92288.00;;;;7392112;19;20145;-75
2022/04/07 05:55:38;;;;;;;1.17;0.80;;;6.00;99.90;7.00;92285.00;;;;7389070;19;20151;-76
2022/04/07 05:58:13;;;;;;;0.50;0.50;;;6.10;99.90;7.10;92283.00;;;;7391653;19;20600;-74
2022/04/07 06:00:47;;;;;;;1.50;0.60;;;6.20;99.90;7.20;92252.00;;;;7391639;19;20120;-75
2022/04/07 06:03:14;;;;;;;0.60;0.50;;;6.30;1.00;7.20;92255.00;;;;7390027;19;20611;-74
2022/04/07 06:05:41;;;;;;;0.70;0.60;;;6.40;1.00;7.30;92264.00;;;;7390387;19;20165;-74
2022/04/07 06:08:15;;;;;;;1.23;0.47;;;6.40;1.00;7.30;92268.00;;;;7390757;19;20172;-77
2022/04/07 06:10:42;;;;;;;0.33;0.33;;;6.40;1.00;7.20;92272.00;;;;7387635;19;20137;-75
2022/04/07 06:13:09;;;;;;;2.47;0.80;;;6.40;1.00;7.10;92279.00;;;;7390564;19;20216;-76
2022/04/07 06:15:43;;;;;;;1.03;0.47;;;6.40;1.00;7.10;92268.00;;;;7389323;19;20124;-75
2022/04/07 06:18:10;;;;;;;0.50;0.50;;;6.30;1.00;7.10;92247.00;;;;7389862;19;20148;-75
2022/04/07 06:20:37;;;;;;;0.50;0.50;;;6.30;1.00;6.90;92271.00;;;;7390131;19;20137;-75
2022/04/07 06:23:11;;;;;;;0.87;0.77;;;6.30;1.00;6.90;92288.00;;;;7390790;19;20149;-74
2022/04/07 06:25:38;;;;;;;1.37;0.50;;;6.30;1.00;6.90;92253.00;;;;7389106;19;20125;-73
2022/04/07 06:28:05;;;;;;;1.07;0.67;;;6.20;1.00;6.80;92270.00;;;;7389816;19;20176;-75
2022/04/07 06:30:39;;;;;;;0.87;0.40;;;6.20;1.00;6.90;92282.00;;;;7390347;19;20137;-74
2022/04/07 06:33:06;;;;;;;0.70;0.50;;;6.20;1.00;6.80;92261.00;;;;7391537;19;20129;-74
2022/04/07 06:35:33;;;;;;;0.67;0.40;;;6.20;1.00;6.80;92278.00;;;;7387707;19;20209;-73
2022/04/07 06:38:07;;;;;;;0.50;0.50;;;6.10;1.00;7.00;92287.00;;;;7390483;19;20584;-74
2022/04/07 06:40:34;;;;;;;0.50;0.50;;;6.10;99.90;7.00;92264.00;;;;7389663;19;20174;-74
2022/04/07 06:43:01;;;;;;;1.03;0.57;;;6.10;1.00;7.00;92263.00;;;;7388495;19;20136;-74
2022/04/07 06:45:35;;;;;;;3.57;0.50;;;6.20;1.00;7.10;92259.00;;;;7389739;19;20133;-75
2022/04/07 06:48:03;;;;;;;0.67;0.50;;;6.30;1.00;7.10;92275.00;;;;7392206;19;20137;-75
2022/04/07 06:50:31;;;;;;;0.50;0.50;;;6.30;1.00;7.00;92268.00;;;;7395874;19;20604;-74
2022/04/07 06:53:05;;;;;;;1.07;0.40;;;6.30;1.00;7.10;92236.00;;;;7396099;19;20486;-74
2022/04/07 06:55:32;;;;;;;0.60;0.50;;;6.40;1.00;7.20;92244.00;;;;7395510;19;20141;-74
2022/04/07 06:58:06;;;;;;;0.60;0.47;;;6.40;1.00;7.20;92251.00;;;;7395976;19;20141;-73
2022/04/07 07:00:53;;;;;;;0.33;0.20;;;6.50;1.00;7.20;92204.00;;;;7395413;19;20389;-74
2022/04/07 07:03:20;;;;;;;0.30;0.30;;;6.60;1.00;7.30;92224.00;;;;7396526;19;20133;-73
2022/04/07 07:05:58;;;;;;;1.90;0.30;;;6.60;1.00;7.20;92216.00;;;;7398198;19;20467;-75
2022/04/07 07:08:26;;;;;;;1.40;0.30;;;6.60;1.00;7.40;92207.00;;;;7396583;19;20483;-75
2022/04/07 07:10:53;;;;;;;0.30;0.30;;;6.70;1.00;7.70;92210.00;;;;7395732;19;20480;-73
2022/04/07 07:13:27;;;;;;;0.30;0.30;;;6.80;1.00;7.90;92216.00;;;;7396389;19;20141;-74
2022/04/07 07:15:55;;;;;;;0.40;0.40;;;6.90;1.00;7.90;92195.00;;;;7394274;19;20152;-75
2022/04/07 07:18:22;;;;;;;2.00;0.50;;;6.90;1.00;8.00;92203.00;;;;7395086;19;20144;-73
2022/04/07 07:20:56;;;;;;;0.60;0.20;;;7.00;1.00;8.10;92176.00;;;;7396063;19;20157;-77
2022/04/07 07:23:23;;;;;;;0.30;0.30;;;7.00;1.00;8.00;92176.00;;;;7391718;19;20594;-76
2022/04/07 07:25:50;;;;;;;0.53;0.37;;;7.10;1.00;8.20;92183.00;;;;7393824;19;20169;-76
2022/04/07 07:28:24;;;;;;;0.40;0.23;;;7.20;1.00;8.20;92182.00;;;;7390069;19;20136;-76
2022/04/07 07:30:51;;;;;;;0.37;0.33;;;7.20;99.90;7.70;92192.00;;;;7391252;19;20629;-76
2022/04/07 07:33:18;;;;;;;1.27;0.40;;;7.20;99.90;7.70;92146.00;;;;7389985;19;20129;-76
2022/04/07 07:35:52;;;;;;;0.30;0.30;;;7.10;1.00;7.60;92140.00;;;;7388378;19;20117;-76
2022/04/07 07:38:20;;;;;;;0.97;0.40;;;7.10;99.90;7.70;92162.00;;;;7390266;19;20141;-77
2022/04/07 07:40:47;;;;;;;1.27;0.30;;;7.10;99.90;7.80;92133.00;;;;7390658;19;20608;-76
2022/04/07 07:43:21;;;;;;;1.07;0.43;;;7.20;99.90;7.70;92144.00;;;;7389379;19;20133;-76
2022/04/07 07:45:50;;;;;;;1.43;0.40;;;7.20;99.90;7.70;92150.00;;;;7394858;19;20141;-75
2022/04/07 07:48:28;;;;;;;0.30;0.30;;;7.20;99.90;7.90;92148.00;;;;7392208;19;20133;-75
2022/04/07 07:51:02;;;;;;;0.87;0.50;;;7.20;99.90;8.00;92140.00;;;;7394823;19;20156;-74
2022/04/07 07:53:29;;;;;;;0.27;0.27;;;7.20;99.90;7.90;92103.00;;;;7393457;19;20145;-75
2022/04/07 07:55:56;;;;;;;0.30;0.30;;;7.30;99.90;8.30;92126.00;;;;7393202;19;20193;-75
2022/04/07 07:58:43;;;;;;;0.80;0.50;;;7.50;82.30;8.60;92127.00;;;;7393472;19;20172;-75
2022/04/07 08:01:17;;;;;;;0.30;0.30;;;7.70;1.00;8.70;92096.00;;;;7395101;19;20572;-78
2022/04/07 08:03:51;;;;;;;0.90;0.40;;;7.90;99.90;8.40;92087.00;;;;7392688;19;20131;-78
2022/04/07 08:06:18;;;;;;;2.43;0.63;;;7.90;99.90;8.70;92072.00;;;;7394321;19;20491;-75
2022/04/07 08:08:45;;;;;;;0.40;0.40;;;8.00;99.90;8.70;92086.00;;;;7395883;19;20132;-74
2022/04/07 08:11:21;;;;;;;1.53;0.60;;;;;8.90;92094.00;;;;7393875;19;20195;-74
2022/04/07 08:13:49;;;;;;;0.40;0.40;;;;;8.60;92129.00;;;;7393352;19;20137;-76
2022/04/07 08:16:16;;;;;;;1.93;0.53;;;;;8.10;92107.00;;;;7392759;19;20149;-75
2022/04/07 08:18:50;;;;;;;1.67;0.47;;;;;7.70;92096.00;;;;7395109;19;20623;-75
2022/04/07 08:21:18;;;;;;;2.00;0.40;;;;;7.90;92081.00;;;;7392554;19;20164;-74
2022/04/07 08:23:45;;;;;;;0.90;0.63;;;7.60;99.90;8.40;92082.00;;;;7394671;19;20133;-75
2022/04/07 08:26:19;;;;;;;0.40;0.20;;;7.60;1.00;8.80;92053.00;;;;7393582;19;20596;-74
2022/04/07 08:28:47;;;;;;;1.37;0.60;;;7.90;1.00;9.50;92052.00;;;;7392455;19;20136;-74
2022/04/07 08:31:14;;;;;;;0.30;0.30;;;8.20;1.00;9.70;92046.00;;;;7393792;19;20137;-78
2022/04/07 08:33:48;;;;;;;1.33;0.30;;;8.50;99.90;10.00;92008.00;;;;7393857;19;20636;-78
2022/04/07 08:36:17;;;;;;;0.60;0.30;;;8.80;99.90;10.30;92063.00;;;;7391050;19;20141;-76
2022/04/07 08:38:44;;;;;;;4.68;0.43;;;9.10;1.00;10.30;92032.00;;;;7394733;19;20133;-78
2022/04/07 08:41:19;;;;;;;0.70;0.40;;;9.30;1.00;10.40;92018.00;;;;7394640;19;20588;-74
2022/04/07 08:43:46;;;;;;;0.63;0.20;;;9.50;1.00;11.20;92034.00;;;;7392555;19;20158;-76
2022/04/07 08:46:13;;;;;;;0.13;0.10;;;9.90;99.90;11.10;92018.00;;;;7393619;19;20117;-76
2022/04/07 08:48:47;;;;;;;1.20;0.50;;;10.00;99.90;10.70;92026.00;;;;7393905;19;20162;-78
2022/04/07 08:51:16;;;;;;;1.80;0.50;;;10.00;58.60;10.10;92041.00;;;;7393184;19;20141;-80
2022/04/07 08:53:43;;;;;;;1.53;0.50;;;9.70;99.90;10.30;92024.00;;;;7394323;19;20136;-77
2022/04/07 08:56:17;;;;;;;0.87;0.40;;;9.60;99.90;10.60;92059.00;;;;7391693;19;20501;-76
2022/04/07 08:58:53;;;;;;;1.80;0.50;;;9.50;99.90;10.80;92047.00;;;;7390686;19;20631;-77
2022/04/07 09:01:27;;;;;;;1.37;0.57;;;9.60;99.90;10.40;92047.00;;;;7393577;19;20493;-76
2022/04/07 09:03:55;;;;;;;1.40;0.20;;;9.60;99.90;10.00;92038.00;;;;7393358;19;20175;-78
2022/04/07 09:06:23;;;;;;;1.23;0.47;;;9.50;76.10;9.60;92045.00;;;;7393503;19;20599;-78
2022/04/07 09:09:22;;;;;;;0.63;0.47;;;9.30;99.90;9.20;92042.00;;;;7392178;19;20168;-75
2022/04/07 09:11:56;;;;;;;2.53;0.50;;;8.80;1.00;8.80;92022.00;;;;7388974;19;20623;-74
2022/04/07 09:14:36;;;;;;;0.43;0.40;;;8.50;99.90;8.40;92048.00;;;;7391350;19;20610;-74
2022/04/07 09:17:19;;;;;;;1.10;0.53;;;8.10;99.90;8.20;92049.00;;;;7391770;19;20137;-76
2022/04/07 09:19:59;;;;;;;2.53;0.50;;;7.90;1.00;7.60;92057.00;;;;7400151;19;20157;-79
2022/04/07 09:22:31;;;;;;;0.93;0.40;;;7.50;99.90;7.80;92040.00;;;;7401576;19;20592;-76
2022/04/07 09:25:05;;;;;;;0.50;0.50;;;7.50;99.90;8.00;92026.00;;;;7401566;19;20148;-78
2022/04/07 09:27:34;;;;;;;1.53;0.60;;;7.70;1.00;8.20;92032.00;;;;7408108;19;20131;-79
2022/04/07 09:30:01;;;;;;;0.63;0.50;;;7.70;1.00;8.20;92025.00;;;;7406656;19;20139;-78
2022/04/07 09:32:47;;;;;;;0.60;0.40;;;7.90;99.90;8.00;92017.00;;;;7403059;19;20139;-78
2022/04/07 09:35:14;;;;;;;0.40;0.40;;;8.00;99.90;7.90;92011.00;;;;7398155;19;20628;-74
2022/04/07 09:37:48;;;;;;;1.40;0.53;;;7.70;99.90;7.90;92014.00;;;;7397870;19;20153;-78
2022/04/07 09:40:18;;;;;;;1.23;0.50;;;7.70;1.00;7.60;91971.00;;;;7403933;19;20164;-79
2022/04/07 09:42:56;;;;;;;0.30;0.30;;;7.50;99.90;8.20;91965.00;;;;7405751;19;20140;-78
2022/04/07 09:45:45;;;;;;;1.07;0.43;;;7.80;1.00;9.00;91959.00;;;;7397719;19;20144;-77
2022/04/07 09:48:36;;;;;;;1.37;0.40;;;8.20;99.90;8.90;91962.00;;;;7396636;19;20212;-79
2022/04/07 09:51:11;;;;;;;3.23;0.77;;;8.40;59.40;9.30;91930.00;;;;7400823;19;20490;-78
2022/04/07 09:53:40;;;;;;;0.27;0.20;;;8.60;26.10;9.90;91923.00;;;;7396683;19;20137;-78
2022/04/07 09:56:07;;;;;;;0.40;0.30;;;9.10;1.00;9.90;91938.00;;;;7392338;19;20129;-78
2022/04/07 09:58:50;;;;;;;0.10;0.10;;;9.50;1.00;9.70;91923.00;;;;7394990;19;20185;-79
2022/04/07 10:01:24;;;;;;;1.40;0.40;;;9.50;1.00;10.10;91901.00;;;;7393343;19;20121;-77
2022/04/07 10:03:59;;;;;;;2.77;0.40;;;9.70;1.00;10.20;91882.00;;;;7392855;19;20487;-75
2022/04/07 10:06:27;;;;;;;0.20;0.20;;;9.80;1.00;9.90;91823.00;;;;7390822;19;20140;-79
2022/04/07 10:08:54;;;;;;;1.37;0.40;;;9.80;99.90;10.00;91904.00;;;;7390219;19;20164;-77
2022/04/07 10:11:31;;;;;;;0.37;0.10;;;9.60;1.00;10.70;91893.00;;;;7390839;19;20135;-75
2022/04/07 10:14:00;;;;;;;0.20;0.20;;;9.90;99.90;11.10;91901.00;;;;7389684;19;20633;-78
2022/04/07 10:16:45;;;;;;;1.17;0.43;;;10.10;80.20;11.20;91887.00;;;;7388954;19;20155;-75
2022/04/07 10:19:31;;;;;;;0.27;0.27;;;10.30;99.90;10.90;91881.00;;;;7389575;19;20144;-75
2022/04/07 10:22:30;;;;;;;0.47;0.30;;;10.20;1.00;11.20;91869.00;;;;7390564;19;20181;-76
2022/04/07 10:25:06;;;;;;;1.77;0.30;;;10.20;5.90;11.60;91869.00;;;;7398110;19;20217;-75
2022/04/07 10:27:43;;;;;;;0.28;0.25;;;10.50;1.00;11.10;91807.00;;;;7397831;19;20140;-76
2022/04/07 10:30:17;;;;;;;0.10;0.10;;;10.60;1.00;11.20;91833.00;;;;7397329;19;20618;-74
2022/04/07 10:32:57;;;;;;;0.50;0.40;;;10.60;1.00;11.40;91835.00;;;;7396821;19;20592;-77
2022/04/07 10:35:36;;;;;;;1.23;0.40;;;10.70;1.00;11.30;91841.00;;;;7396963;19;20624;-76
2022/04/07 10:38:07;;;;;;;0.20;0.20;;;10.50;1.00;10.90;91835.00;;;;7398407;19;20136;-75
2022/04/07 10:40:50;;;;;;;4.32;1.05;;;10.50;1.00;11.50;91857.00;;;;7396777;19;20137;-76
2022/04/07 10:43:25;;;;;;;0.22;0.15;;;10.70;1.00;12.00;91826.00;;;;7397805;19;20149;-75
2022/04/07 10:46:02;;;;;;;0.85;0.30;;;11.00;1.00;12.30;91890.00;;;;7396291;19;20619;-75
2022/04/07 10:48:34;;;;;;;0.70;0.20;;;11.30;99.90;11.30;91819.00;;;;7397193;19;20144;-77
2022/04/07 10:51:10;;;;;;;0.20;0.20;;;10.80;99.90;11.30;91826.00;;;;7399165;19;20145;-76
2022/04/07 10:53:40;;;;;;;0.10;0.10;;;10.60;1.00;11.60;91811.00;;;;7396479;19;20169;-76
2022/04/07 10:56:41;;;;;;;0.85;0.40;;;10.70;1.00;11.70;91833.00;;;;7397458;19;20146;-76
2022/04/07 10:59:42;;;;;;;1.98;0.22;;;10.90;1.00;11.60;91814.00;;;;7395173;19;20152;-74
2022/04/07 11:02:12;;;;;;;3.92;0.52;;;10.90;1.00;11.90;91850.00;;;;7395746;19;20402;-76
2022/04/07 11:05:10;;;;;;;0.82;0.30;;;11.00;99.90;11.80;91831.00;;;;7397211;19;20137;-75
2022/04/07 11:07:54;;;;;;;2.33;0.30;;;11.10;1.00;11.10;91846.00;;;;7396745;19;20133;-74
2022/04/07 11:10:47;;;;;;;0.20;0.10;;;10.60;1.00;10.50;91816.00;;;;7394493;19;20635;-77
2022/04/07 11:13:17;;;;;;;0.38;0.28;;;10.10;1.00;11.30;91849.00;;;;7397907;19;20455;-74
2022/04/07 11:15:59;;;;;;;2.20;0.30;;;10.30;20.40;11.60;91846.00;;;;7395587;19;20140;-76
2022/04/07 11:18:44;;;;;;;5.93;0.95;;;10.50;99.90;11.10;91839.00;;;;7395762;19;20140;-77
2022/04/07 11:21:17;;;;;;;0.65;0.40;;;10.40;1.00;11.60;91803.00;;;;7396277;19;20596;-76
2022/04/07 11:23:54;;;;;;;0.38;0.30;;;10.80;1.00;11.20;91822.00;;;;7396489;19;20143;-75
2022/04/07 11:26:34;;;;;;;0.03;0.03;;;10.80;1.00;11.20;91809.00;;;;7395576;19;20121;-75
2022/04/07 11:29:12;;;;;;;0.35;0.20;;;10.80;1.00;10.80;91838.00;;;;7394955;19;20141;-75
2022/04/07 11:31:48;;;;;;;0.25;0.25;;;10.60;1.00;11.00;91826.00;;;;7395555;19;20147;-76
2022/04/07 11:34:49;;;;;;;2.63;0.40;;;10.40;1.00;11.10;91812.00;;;;7397012;19;20615;-75